createdAt,value
2022-11-19T00:02:00.357Z,6.90
2022-11-19T00:06:07.583Z,5.13
2022-11-19T00:10:11.261Z,6.67
2022-11-19T00:14:12.743Z,6.73
2022-11-19T00:18:13.251Z,6.70
2022-11-19T00:22:13.790Z,8.17
2022-11-19T00:26:18.054Z,6.67
2022-11-19T00:30:40.951Z,7.73
2022-11-19T00:34:39.413Z,8.53
2022-11-19T00:38:40.301Z,7.47
2022-11-19T00:43:03.077Z,9.43
2022-11-19T00:47:03.327Z,13.17
2022-11-19T00:51:04.393Z,8.23
2022-11-19T00:55:04.737Z,7.77
2022-11-19T00:59:08.022Z,8.37
2022-11-19T01:03:08.547Z,8.97
2022-11-19T01:07:08.981Z,8.93
2022-11-19T01:11:11.616Z,8.77
2022-11-19T01:15:14.586Z,9.03
2022-11-19T01:19:17.163Z,9.10
2022-11-19T01:23:17.733Z,8.20
2022-11-19T01:27:17.995Z,10.50
2022-11-19T01:31:24.485Z,9.40
2022-11-19T01:35:24.613Z,9.00
2022-11-19T01:39:24.647Z,9.73
2022-11-19T01:43:43.775Z,9.13
2022-11-19T01:47:46.633Z,10.73
2022-11-19T01:51:54.313Z,10.90
2022-11-19T01:55:55.403Z,10.90
2022-11-19T01:59:55.987Z,11.20
2022-11-19T02:04:00.792Z,12.10
2022-11-19T02:08:01.993Z,12.53
2022-11-19T02:12:25.183Z,12.40
2022-11-19T02:16:34.407Z,12.97
2022-11-19T02:21:08.952Z,13.70
2022-11-19T02:25:26.085Z,13.97
2022-11-19T02:30:07.780Z,14.33
2022-11-19T02:34:17.396Z,15.13
2022-11-19T02:38:30.768Z,16.60
2022-11-19T02:42:38.071Z,15.43
2022-11-19T02:46:41.853Z,17.20
2022-11-19T02:50:49.214Z,18.37
2022-11-19T02:54:49.292Z,19.57
2022-11-19T02:59:07.839Z,21.43
2022-11-19T03:03:30.637Z,21.87
2022-11-19T03:07:32.750Z,21.17
2022-11-19T03:11:35.766Z,21.13
2022-11-19T03:16:02.057Z,20.03
2022-11-19T03:20:18.780Z,21.57
2022-11-19T03:24:26.146Z,23.13
2022-11-19T03:28:32.915Z,21.77
2022-11-19T03:32:39.744Z,23.70
2022-11-19T03:36:46.485Z,23.37
2022-11-19T03:40:47.705Z,20.67
2022-11-19T03:44:52.949Z,20.93
2022-11-19T03:48:57.569Z,21.20
2022-11-19T03:53:04.594Z,22.70
2022-11-19T03:57:08.385Z,21.10
2022-11-19T04:01:08.909Z,20.27
2022-11-19T04:05:10.018Z,18.67
2022-11-19T04:09:12.723Z,21.57
2022-11-19T04:13:12.876Z,21.50
2022-11-19T04:17:13.822Z,23.20
2022-11-19T04:21:13.971Z,21.53
2022-11-19T04:25:16.829Z,19.20
2022-11-19T04:29:17.321Z,18.60
2022-11-19T04:33:17.775Z,21.03
2022-11-19T04:37:17.921Z,18.90
2022-11-19T04:41:20.620Z,19.27
2022-11-19T04:45:20.763Z,19.43
2022-11-19T04:49:21.092Z,20.20
2022-11-19T04:53:21.626Z,20.60
2022-11-19T04:57:24.441Z,20.80
2022-11-19T05:01:24.828Z,22.93
2022-11-19T05:05:25.021Z,24.63
2022-11-19T05:09:25.368Z,23.53
2022-11-19T05:13:28.386Z,23.43
2022-11-19T05:17:28.549Z,25.97
2022-11-19T05:21:28.907Z,24.93
2022-11-19T05:25:29.161Z,23.37
2022-11-19T05:29:31.958Z,23.90
2022-11-19T05:33:34.318Z,24.20
2022-11-19T05:37:34.867Z,23.40
2022-11-19T05:41:34.973Z,23.03
2022-11-19T05:45:37.874Z,25.37
2022-11-19T05:49:38.043Z,23.47
2022-11-19T05:53:38.144Z,22.80
2022-11-19T05:57:38.226Z,23.30
2022-11-19T06:01:40.981Z,22.93
2022-11-19T06:05:41.142Z,33.57
2022-11-19T06:09:41.306Z,21.47
2022-11-19T06:13:41.335Z,24.43
2022-11-19T06:17:44.372Z,24.53
2022-11-19T06:21:44.484Z,23.93
2022-11-19T06:25:44.920Z,21.37
2022-11-19T06:29:45.031Z,23.37
2022-11-19T06:33:47.914Z,23.53
2022-11-19T06:37:48.024Z,23.30
2022-11-19T06:41:48.814Z,21.97
2022-11-19T06:45:49.083Z,22.63
2022-11-19T06:49:51.733Z,21.40
2022-11-19T06:53:51.960Z,23.53
2022-11-19T06:57:52.219Z,28.50
2022-11-19T07:01:52.381Z,26.03
2022-11-19T07:06:01.891Z,28.07
2022-11-19T07:10:01.931Z,27.60
2022-11-19T07:14:03.746Z,27.40
2022-11-19T07:18:05.308Z,27.23
2022-11-19T07:22:08.112Z,27.33
2022-11-19T07:26:08.631Z,27.07
2022-11-19T07:30:11.689Z,24.87
2022-11-19T07:34:13.685Z,23.90
2022-11-19T07:38:16.378Z,25.77
2022-11-19T07:42:37.472Z,26.03
2022-11-19T07:46:41.747Z,29.17
2022-11-19T07:50:41.881Z,28.23
2022-11-19T07:54:44.639Z,39.23
2022-11-19T07:58:45.151Z,26.93
2022-11-19T08:02:45.328Z,31.03
2022-11-19T08:06:45.497Z,25.60
2022-11-19T08:10:48.204Z,28.00
2022-11-19T08:14:48.287Z,27.77
2022-11-19T08:18:48.398Z,25.87
2022-11-19T08:22:48.436Z,26.93
2022-11-19T08:26:51.940Z,26.23
2022-11-19T08:30:52.288Z,26.80
2022-11-19T08:34:52.529Z,27.93
2022-11-19T08:38:52.711Z,26.00
2022-11-19T08:43:04.324Z,28.27
2022-11-19T08:47:04.494Z,26.57
2022-11-19T08:51:07.315Z,24.83
2022-11-19T08:55:09.145Z,25.17
2022-11-19T08:59:12.235Z,29.70
2022-11-19T09:03:12.795Z,23.23
2022-11-19T09:07:13.137Z,26.23
2022-11-19T09:11:16.239Z,25.53
2022-11-19T09:15:19.152Z,22.17
2022-11-19T09:19:19.241Z,25.73
2022-11-19T09:23:19.294Z,26.97
2022-11-19T09:27:19.380Z,23.70
2022-11-19T09:31:23.590Z,23.67
2022-11-19T09:35:23.778Z,23.17
2022-11-19T09:39:24.155Z,21.57
2022-11-19T09:43:44.977Z,24.30
2022-11-19T09:48:13.961Z,21.23
2022-11-19T09:52:20.135Z,21.03
2022-11-19T09:56:28.593Z,23.20
2022-11-19T10:00:32.431Z,24.87
2022-11-19T10:04:36.225Z,22.03
2022-11-19T10:08:58.949Z,23.90
2022-11-19T10:13:20.700Z,22.83
2022-11-19T10:17:36.680Z,22.73
2022-11-19T10:21:52.954Z,21.57
2022-11-19T10:25:59.137Z,22.37
2022-11-19T10:30:09.095Z,25.30
2022-11-19T10:34:19.563Z,23.67
2022-11-19T10:38:30.342Z,24.63
2022-11-19T10:42:38.611Z,22.90
2022-11-19T10:46:39.298Z,22.67
2022-11-19T10:50:39.817Z,22.47
2022-11-19T10:54:44.563Z,21.30
2022-11-19T10:58:52.731Z,22.17
2022-11-19T11:03:01.917Z,22.77
2022-11-19T11:07:04.976Z,23.20
2022-11-19T11:11:08.012Z,19.73
2022-11-19T11:15:15.806Z,22.90
2022-11-19T11:19:20.464Z,19.80
2022-11-19T11:23:25.441Z,20.87
2022-11-19T11:27:34.146Z,20.83
2022-11-19T11:31:38.760Z,21.27
2022-11-19T11:35:40.569Z,18.83
2022-11-19T11:39:44.511Z,20.33
2022-11-19T11:44:04.209Z,22.07
2022-11-19T11:48:10.849Z,21.83
2022-11-19T11:52:22.593Z,21.63
2022-11-19T11:56:24.502Z,23.03
2022-11-19T12:00:37.935Z,24.00
2022-11-19T12:04:38.645Z,20.63
2022-11-19T12:08:51.761Z,19.90
2022-11-19T12:13:26.136Z,20.17
2022-11-19T12:17:51.042Z,21.27
2022-11-19T12:22:06.179Z,21.70
2022-11-19T12:26:19.826Z,20.50
2022-11-19T12:30:24.123Z,18.30
2022-11-19T12:35:12.964Z,20.37
2022-11-19T12:39:35.591Z,20.23
2022-11-19T12:43:56.519Z,18.87
2022-11-19T12:48:34.938Z,18.47
2022-11-19T12:53:10.240Z,19.03
2022-11-19T12:57:27.946Z,20.57
2022-11-19T13:01:34.854Z,19.57
2022-11-19T13:05:47.736Z,19.03
2022-11-19T13:09:55.674Z,20.10
2022-11-19T13:14:02.978Z,19.13
2022-11-19T13:18:11.168Z,18.60
2022-11-19T13:22:20.488Z,20.60
2022-11-19T13:26:28.991Z,18.53
2022-11-19T13:30:32.199Z,18.47
2022-11-19T13:34:42.073Z,19.03
2022-11-19T13:38:49.730Z,19.80
2022-11-19T13:43:30.644Z,20.40
2022-11-19T13:47:32.276Z,19.77
2022-11-19T13:51:39.742Z,21.00
2022-11-19T13:55:44.238Z,20.27
2022-11-19T13:59:50.294Z,20.50
2022-11-19T14:04:13.373Z,21.00
2022-11-19T14:08:35.260Z,21.93
2022-11-19T14:13:09.501Z,20.07
2022-11-19T14:17:38.015Z,20.73
2022-11-19T14:22:11.718Z,20.87
2022-11-19T14:26:24.049Z,20.90
2022-11-19T14:31:08.291Z,19.47
2022-11-19T14:35:32.456Z,20.37
2022-11-19T14:39:41.405Z,19.07
2022-11-19T14:44:11.662Z,18.47
2022-11-19T14:48:11.819Z,17.63
2022-11-19T14:52:28.477Z,19.07
2022-11-19T14:56:28.984Z,18.60
2022-11-19T15:00:35.336Z,20.30
2022-11-19T15:04:41.159Z,20.70
2022-11-19T15:08:56.916Z,20.37
2022-11-19T15:13:36.597Z,22.07
2022-11-19T15:17:38.329Z,21.13
2022-11-19T15:22:24.991Z,22.10
2022-11-19T15:26:39.486Z,19.60
2022-11-19T15:31:14.525Z,20.50
2022-11-19T15:35:40.295Z,20.67
2022-11-19T15:39:48.074Z,18.13
2022-11-19T15:43:56.645Z,20.23
2022-11-19T15:48:13.164Z,20.57
2022-11-19T15:52:26.108Z,19.63
2022-11-19T15:56:26.815Z,21.00
2022-11-19T16:00:30.650Z,19.00
2022-11-19T16:04:39.038Z,19.20
2022-11-19T16:08:40.583Z,20.60
2022-11-19T16:12:53.131Z,18.43
2022-11-19T16:17:09.764Z,20.43
2022-11-19T16:21:09.931Z,19.47
2022-11-19T16:25:16.596Z,21.37
2022-11-19T16:29:22.529Z,21.07
2022-11-19T16:33:28.725Z,21.17
2022-11-19T16:37:29.417Z,22.13
2022-11-19T16:41:42.699Z,24.50
2022-11-19T16:45:48.355Z,20.97
2022-11-19T16:50:04.033Z,22.10
2022-11-19T16:54:06.025Z,27.00
2022-11-19T16:58:17.362Z,21.87
2022-11-19T17:02:20.887Z,21.57
2022-11-19T17:06:27.974Z,22.17
2022-11-19T17:10:34.729Z,23.50
2022-11-19T17:14:52.591Z,20.83
2022-11-19T17:18:54.152Z,21.20
2022-11-19T17:22:57.226Z,25.23
2022-11-19T17:26:57.396Z,21.67
2022-11-19T17:30:58.914Z,22.67
2022-11-19T17:34:59.060Z,22.87
2022-11-19T17:39:01.926Z,22.17
2022-11-19T17:43:15.745Z,23.47
2022-11-19T17:47:23.522Z,32.87
2022-11-19T17:51:27.891Z,26.43
2022-11-19T17:55:30.678Z,26.83
2022-11-19T17:59:30.782Z,27.00
2022-11-19T18:03:30.971Z,23.27
2022-11-19T18:07:32.593Z,24.63
2022-11-19T18:11:35.491Z,23.70
2022-11-19T18:15:35.573Z,22.80
2022-11-19T18:19:35.741Z,25.10
2022-11-19T18:23:35.897Z,25.83
2022-11-19T18:27:38.856Z,24.93
2022-11-19T18:31:45.771Z,23.60
2022-11-19T18:35:46.176Z,23.93
2022-11-19T18:39:46.598Z,31.00
2022-11-19T18:44:02.434Z,23.93
2022-11-19T18:48:02.659Z,25.17
2022-11-19T18:52:03.234Z,25.03
2022-11-19T18:56:03.332Z,26.23
2022-11-19T19:00:07.589Z,24.83
2022-11-19T19:04:14.363Z,25.83
2022-11-19T19:08:16.028Z,28.23
2022-11-19T19:12:22.328Z,27.93
2022-11-19T19:16:26.206Z,26.80
2022-11-19T19:20:26.953Z,34.00
2022-11-19T19:24:27.288Z,26.13
2022-11-19T19:28:27.794Z,25.17
2022-11-19T19:32:30.531Z,26.13
2022-11-19T19:36:31.021Z,28.10
2022-11-19T19:40:31.342Z,27.30
2022-11-19T19:44:31.783Z,23.50
2022-11-19T19:48:36.149Z,30.07
2022-11-19T19:52:36.332Z,25.57
2022-11-19T19:56:37.160Z,23.93
2022-11-19T20:00:37.409Z,25.33
2022-11-19T20:04:40.241Z,23.30
2022-11-19T20:08:41.634Z,30.03
2022-11-19T20:12:54.385Z,28.10
2022-11-19T20:16:56.214Z,25.93
2022-11-19T20:21:02.054Z,24.10
2022-11-19T20:25:02.243Z,26.90
2022-11-19T20:29:04.721Z,27.60
2022-11-19T20:33:05.185Z,27.90
2022-11-19T20:37:08.001Z,25.93
2022-11-19T20:41:31.506Z,28.90
2022-11-19T20:45:31.638Z,27.20
2022-11-19T20:49:34.971Z,28.23
2022-11-19T20:53:39.282Z,29.60
2022-11-19T20:57:39.880Z,29.33
2022-11-19T21:01:41.388Z,27.13
2022-11-19T21:05:41.818Z,27.33
2022-11-19T21:09:44.824Z,29.03
2022-11-19T21:13:45.827Z,29.60
2022-11-19T21:17:46.711Z,26.00
2022-11-19T21:21:47.293Z,30.87
2022-11-19T21:25:52.885Z,30.30
2022-11-19T21:29:53.083Z,27.50
2022-11-19T21:33:53.486Z,30.57
2022-11-19T21:37:53.753Z,31.03
2022-11-19T21:41:57.059Z,29.13
2022-11-19T21:45:58.130Z,29.00
2022-11-19T21:50:00.828Z,27.47
2022-11-19T21:54:02.139Z,28.57
2022-11-19T21:58:05.540Z,28.70
2022-11-19T22:02:05.691Z,29.07
2022-11-19T22:06:09.585Z,28.77
2022-11-19T22:10:10.987Z,27.70
2022-11-19T22:14:13.767Z,28.70
2022-11-19T22:18:13.913Z,30.83
2022-11-19T22:22:14.149Z,28.93
2022-11-19T22:26:16.086Z,26.83
2022-11-19T22:30:19.359Z,25.57
2022-11-19T22:34:19.544Z,27.43
2022-11-19T22:38:19.760Z,29.97
2022-11-19T22:42:19.925Z,28.43
2022-11-19T22:46:23.629Z,24.13
2022-11-19T22:50:23.779Z,28.37
2022-11-19T22:54:23.918Z,25.10
2022-11-19T22:58:24.050Z,27.77
2022-11-19T23:02:26.884Z,29.30
2022-11-19T23:06:27.865Z,27.40
2022-11-19T23:10:28.125Z,30.07
2022-11-19T23:14:30.025Z,30.47
2022-11-19T23:18:35.012Z,31.33
2022-11-19T23:22:35.084Z,30.10
2022-11-19T23:26:36.582Z,28.47
2022-11-19T23:30:37.081Z,28.27
2022-11-19T23:34:39.767Z,28.03
2022-11-19T23:38:41.159Z,29.67
2022-11-19T23:42:41.362Z,30.63
2022-11-19T23:46:42.429Z,30.70
2022-11-19T23:50:45.099Z,28.53
2022-11-19T23:54:45.184Z,28.17
2022-11-19T23:58:45.690Z,29.30
